createdAt,value
2018-12-31T00:00:44.147Z,93.44
2018-12-31T00:01:34.067Z,93.92
2018-12-31T00:02:34.066Z,93.61
2018-12-31T00:03:34.068Z,94.27
2018-12-31T00:04:34.042Z,94.23
2018-12-31T00:05:34.024Z,94.02
2018-12-31T00:06:34.014Z,93.71
2018-12-31T00:07:34.005Z,94.12
2018-12-31T00:08:34.015Z,94.12
2018-12-31T00:09:33.980Z,94.02
2018-12-31T00:10:33.973Z,93.51
2018-12-31T00:11:33.957Z,94.58
2018-12-31T00:12:33.954Z,94.48
2018-12-31T00:13:33.978Z,94.33
2018-12-31T00:14:33.927Z,94.02
2018-12-31T00:15:34.271Z,93.82
2018-12-31T00:16:33.905Z,93.55
2018-12-31T00:17:33.891Z,94.02
2018-12-31T00:18:33.883Z,93.76
2018-12-31T00:19:33.970Z,93.71
2018-12-31T00:20:33.861Z,94.02
2018-12-31T00:21:33.847Z,94.02
2018-12-31T00:22:33.836Z,94.02
2018-12-31T00:23:33.825Z,93.82
2018-12-31T00:24:33.842Z,93.92
2018-12-31T00:25:33.804Z,93.51
2018-12-31T00:26:33.792Z,93.40
2018-12-31T00:27:33.781Z,93.40
2018-12-31T00:28:33.771Z,93.71
2018-12-31T00:29:33.790Z,93.92
2018-12-31T00:30:33.752Z,94.23
2018-12-31T00:31:33.743Z,94.43
2018-12-31T00:32:33.743Z,94.12
2018-12-31T00:33:33.716Z,93.71
2018-12-31T00:34:33.747Z,93.61
2018-12-31T00:35:33.700Z,93.61
2018-12-31T00:36:33.683Z,93.71
2018-12-31T00:37:33.680Z,94.12
2018-12-31T00:38:33.662Z,94.12
2018-12-31T00:39:33.651Z,94.23
2018-12-31T00:40:33.663Z,94.33
2018-12-31T00:41:41.896Z,94.54
2018-12-31T00:42:33.656Z,94.33
2018-12-31T00:43:33.606Z,94.43
2018-12-31T00:44:33.595Z,95.15
2018-12-31T00:45:33.605Z,95.15
2018-12-31T00:46:33.573Z,94.64
2018-12-31T00:47:33.562Z,94.74
2018-12-31T00:48:33.553Z,95.05
2018-12-31T00:49:33.542Z,94.95
2018-12-31T00:50:33.551Z,95.15
2018-12-31T00:51:33.517Z,94.95
2018-12-31T00:52:33.507Z,94.54
2018-12-31T00:53:33.496Z,94.33
2018-12-31T00:54:33.485Z,94.54
2018-12-31T00:55:34.959Z,93.98
2018-12-31T00:56:33.463Z,94.23
2018-12-31T00:57:33.480Z,94.23
2018-12-31T00:58:33.442Z,94.49
2018-12-31T00:59:33.429Z,94.54
2018-12-31T01:00:33.442Z,94.43
2018-12-31T01:01:33.408Z,94.70
2018-12-31T01:02:33.396Z,94.54
2018-12-31T01:03:33.388Z,94.39
2018-12-31T01:04:33.375Z,94.39
2018-12-31T01:05:33.399Z,94.29
2018-12-31T01:06:33.355Z,94.08
2018-12-31T01:07:33.343Z,94.18
2018-12-31T01:08:33.329Z,94.49
2018-12-31T01:09:33.319Z,94.18
2018-12-31T01:10:33.317Z,94.70
2018-12-31T01:11:33.332Z,95.01
2018-12-31T01:12:33.286Z,94.33
2018-12-31T01:13:33.279Z,94.95
2018-12-31T01:14:33.265Z,94.33
2018-12-31T01:15:33.256Z,94.80
2018-12-31T01:16:33.277Z,94.29
2018-12-31T01:17:33.231Z,94.95
2018-12-31T01:18:33.220Z,95.05
2018-12-31T01:19:33.210Z,94.59
2018-12-31T01:20:33.217Z,94.59
2018-12-31T01:21:33.211Z,94.70
2018-12-31T01:22:33.207Z,94.74
2018-12-31T01:23:33.166Z,94.70
2018-12-31T01:24:33.158Z,95.05
2018-12-31T01:25:33.144Z,94.18
2018-12-31T01:26:33.220Z,94.18
2018-12-31T01:27:33.152Z,94.12
2018-12-31T01:28:33.110Z,94.70
2018-12-31T01:29:33.100Z,95.10
2018-12-31T01:30:33.090Z,94.90
2018-12-31T01:31:33.114Z,94.39
2018-12-31T01:32:33.075Z,94.29
2018-12-31T01:33:33.055Z,94.49
2018-12-31T01:34:33.045Z,94.64
2018-12-31T01:35:33.034Z,95.05
2018-12-31T01:36:33.022Z,94.90
2018-12-31T01:37:33.035Z,94.59
2018-12-31T01:38:33.003Z,94.33
2018-12-31T01:39:32.994Z,94.39
2018-12-31T01:40:32.978Z,94.29
2018-12-31T01:41:32.973Z,95.01
2018-12-31T01:42:32.979Z,94.49
2018-12-31T01:43:32.949Z,94.80
2018-12-31T01:44:32.944Z,94.90
2018-12-31T01:45:32.924Z,95.05
2018-12-31T01:46:32.913Z,94.90
2018-12-31T01:47:32.925Z,94.70
2018-12-31T01:48:32.892Z,94.54
2018-12-31T01:49:32.880Z,94.80
2018-12-31T01:50:32.868Z,94.80
2018-12-31T01:51:32.858Z,94.49
2018-12-31T01:52:32.904Z,94.90
2018-12-31T01:53:32.835Z,94.80
2018-12-31T01:54:32.828Z,95.01
2018-12-31T01:55:32.817Z,94.49
2018-12-31T01:56:32.817Z,94.18
2018-12-31T01:57:32.792Z,94.90
2018-12-31T01:58:32.803Z,94.90
2018-12-31T01:59:32.769Z,94.49
2018-12-31T02:00:32.766Z,94.80
2018-12-31T02:01:32.757Z,95.21
2018-12-31T02:02:32.737Z,94.90
2018-12-31T02:03:32.747Z,94.90
2018-12-31T02:04:32.805Z,95.21
2018-12-31T02:05:32.728Z,94.90
2018-12-31T02:06:32.693Z,95.10
2018-12-31T02:07:32.724Z,94.59
2018-12-31T02:08:32.696Z,94.49
2018-12-31T02:09:32.728Z,94.70
2018-12-31T02:10:32.685Z,95.10
2018-12-31T02:11:32.636Z,95.52
2018-12-31T02:12:32.625Z,95.52
2018-12-31T02:13:32.640Z,94.49
2018-12-31T02:14:32.605Z,94.59
2018-12-31T02:15:32.593Z,94.70
2018-12-31T02:16:32.583Z,94.90
2018-12-31T02:17:32.574Z,94.29
2018-12-31T02:18:32.586Z,95.10
2018-12-31T02:19:32.553Z,95.21
2018-12-31T02:20:32.545Z,94.80
2018-12-31T02:21:32.531Z,94.90
2018-12-31T02:22:32.519Z,94.90
2018-12-31T02:23:32.530Z,95.01
2018-12-31T02:24:32.496Z,95.01
2018-12-31T02:25:32.483Z,95.01
2018-12-31T02:26:32.485Z,95.10
2018-12-31T02:27:32.462Z,94.29
2018-12-31T02:28:32.483Z,94.29
2018-12-31T02:29:32.443Z,94.18
2018-12-31T02:30:32.433Z,94.18
2018-12-31T02:31:32.417Z,94.24
2018-12-31T02:32:32.417Z,94.39
2018-12-31T02:33:32.401Z,94.29
2018-12-31T02:34:32.410Z,94.29
2018-12-31T02:35:32.374Z,95.01
2018-12-31T02:36:32.363Z,95.21
2018-12-31T02:37:32.353Z,95.01
2018-12-31T02:38:32.344Z,94.90
2018-12-31T02:39:32.355Z,95.10
2018-12-31T02:40:32.320Z,95.01
2018-12-31T02:41:32.309Z,95.01
2018-12-31T02:42:32.297Z,95.10
2018-12-31T02:43:32.292Z,95.01
2018-12-31T02:44:32.301Z,94.70
2018-12-31T02:45:32.266Z,95.01
2018-12-31T02:46:32.256Z,94.90
2018-12-31T02:47:32.243Z,94.70
2018-12-31T02:48:32.232Z,94.49
2018-12-31T02:49:32.259Z,94.49
2018-12-31T02:50:32.211Z,94.39
2018-12-31T02:51:32.200Z,94.14
2018-12-31T02:52:32.187Z,94.29
2018-12-31T02:53:32.177Z,94.29
2018-12-31T02:54:32.165Z,94.29
2018-12-31T02:55:32.183Z,94.24
2018-12-31T02:56:32.145Z,94.39
2018-12-31T02:57:32.132Z,94.18
2018-12-31T02:58:32.121Z,94.29
2018-12-31T02:59:32.127Z,93.98
2018-12-31T03:00:32.128Z,94.29
2018-12-31T03:01:32.091Z,94.29
2018-12-31T03:02:32.077Z,94.18
2018-12-31T03:03:32.067Z,93.98
2018-12-31T03:04:32.058Z,94.29
2018-12-31T03:05:32.074Z,94.24
2018-12-31T03:06:32.037Z,94.29
2018-12-31T03:07:32.028Z,94.14
2018-12-31T03:08:32.012Z,94.55
2018-12-31T03:09:32.000Z,94.29
2018-12-31T03:10:32.016Z,94.39
2018-12-31T03:11:31.978Z,94.29
2018-12-31T03:12:31.971Z,94.29
2018-12-31T03:13:31.956Z,94.29
2018-12-31T03:14:31.950Z,94.39
2018-12-31T03:15:31.984Z,94.14
2018-12-31T03:16:31.927Z,94.76
2018-12-31T03:17:31.924Z,94.39
2018-12-31T03:18:31.903Z,94.24
2018-12-31T03:19:31.893Z,94.29
2018-12-31T03:20:31.909Z,94.39
2018-12-31T03:21:31.870Z,93.93
2018-12-31T03:22:31.865Z,94.24
2018-12-31T03:23:31.880Z,94.24
2018-12-31T03:24:31.837Z,94.18
2018-12-31T03:25:31.853Z,94.34
2018-12-31T03:26:31.814Z,94.04
2018-12-31T03:27:31.806Z,94.34
2018-12-31T03:28:31.880Z,94.45
2018-12-31T03:29:31.788Z,94.34
2018-12-31T03:30:31.797Z,94.34
2018-12-31T03:31:31.795Z,94.29
2018-12-31T03:32:31.752Z,94.80
2018-12-31T03:33:31.738Z,94.96
2018-12-31T03:34:31.738Z,95.21
2018-12-31T03:35:31.777Z,94.85
2018-12-31T03:36:31.711Z,94.90
2018-12-31T03:37:31.694Z,94.70
2018-12-31T03:38:31.682Z,94.76
2018-12-31T03:39:31.685Z,94.70
2018-12-31T03:40:31.664Z,94.85
2018-12-31T03:41:31.737Z,94.85
2018-12-31T03:42:31.641Z,94.90
2018-12-31T03:43:31.640Z,94.96
2018-12-31T03:44:31.619Z,94.96
2018-12-31T03:45:31.606Z,94.90
2018-12-31T03:46:31.620Z,94.85
2018-12-31T03:47:31.587Z,95.21
2018-12-31T03:48:31.574Z,95.01
2018-12-31T03:49:31.563Z,94.85
2018-12-31T03:50:31.582Z,94.76
2018-12-31T03:51:31.577Z,94.45
2018-12-31T03:52:31.529Z,94.45
2018-12-31T03:53:31.532Z,94.55
2018-12-31T03:54:31.512Z,94.49
2018-12-31T03:55:31.499Z,94.90
2018-12-31T03:56:31.516Z,95.10
2018-12-31T03:57:31.531Z,94.85
2018-12-31T03:58:31.465Z,94.85
2018-12-31T03:59:31.458Z,94.65
2018-12-31T04:00:31.444Z,94.70
2018-12-31T04:01:31.457Z,94.70
2018-12-31T04:02:31.424Z,94.59
2018-12-31T04:03:31.420Z,94.59
2018-12-31T04:04:31.406Z,94.85
2018-12-31T04:05:31.389Z,94.80
2018-12-31T04:06:31.403Z,94.70
2018-12-31T04:07:31.364Z,94.59
2018-12-31T04:08:31.354Z,94.70
2018-12-31T04:09:31.343Z,94.45
2018-12-31T04:10:31.336Z,94.80
2018-12-31T04:11:31.345Z,94.59
2018-12-31T04:12:31.316Z,94.96
2018-12-31T04:13:31.306Z,95.10
2018-12-31T04:14:31.292Z,95.01
2018-12-31T04:15:31.277Z,94.24
2018-12-31T04:16:31.266Z,94.34
2018-12-31T04:17:31.283Z,94.14
2018-12-31T04:18:31.246Z,94.55
2018-12-31T04:19:31.233Z,93.93
2018-12-31T04:20:31.223Z,94.24
2018-12-31T04:21:31.217Z,94.34
2018-12-31T04:22:31.243Z,93.83
2018-12-31T04:23:31.199Z,94.14
2018-12-31T04:24:31.180Z,94.24
2018-12-31T04:25:31.168Z,94.55
2018-12-31T04:26:31.158Z,94.29
2018-12-31T04:27:31.172Z,95.01
2018-12-31T04:28:31.138Z,94.70
2018-12-31T04:29:31.123Z,94.18
2018-12-31T04:30:31.114Z,94.49
2018-12-31T04:31:31.104Z,94.34
2018-12-31T04:32:31.113Z,93.93
2018-12-31T04:33:31.094Z,94.45
2018-12-31T04:34:31.084Z,94.14
2018-12-31T04:35:31.060Z,94.34
2018-12-31T04:36:31.046Z,94.24
2018-12-31T04:37:31.062Z,94.55
2018-12-31T04:38:31.024Z,94.24
2018-12-31T04:39:31.014Z,94.14
2018-12-31T04:40:31.005Z,94.04
2018-12-31T04:41:31.001Z,94.14
2018-12-31T04:42:31.007Z,93.73
2018-12-31T04:43:30.972Z,94.24
2018-12-31T04:44:30.960Z,94.14
2018-12-31T04:45:30.948Z,94.55
2018-12-31T04:46:30.940Z,94.14
2018-12-31T04:47:30.957Z,94.45
2018-12-31T04:48:30.916Z,94.24
2018-12-31T04:49:30.910Z,94.24
2018-12-31T04:50:30.892Z,94.59
2018-12-31T04:51:30.881Z,94.59
2018-12-31T04:52:30.870Z,94.45
2018-12-31T04:53:30.886Z,94.24
2018-12-31T04:54:30.848Z,94.76
2018-12-31T04:55:30.837Z,95.10
2018-12-31T04:56:30.911Z,94.85
2018-12-31T04:57:30.815Z,94.80
2018-12-31T04:58:30.829Z,94.24
2018-12-31T04:59:30.793Z,94.90
2018-12-31T05:00:30.781Z,94.24
2018-12-31T05:01:30.774Z,94.45
2018-12-31T05:02:30.760Z,94.14
2018-12-31T05:03:30.775Z,94.24
2018-12-31T05:04:30.738Z,94.24
2018-12-31T05:05:30.726Z,94.59
2018-12-31T05:06:30.716Z,95.06
2018-12-31T05:07:30.704Z,95.10
2018-12-31T05:08:30.717Z,94.90
2018-12-31T05:09:30.684Z,94.76
2018-12-31T05:10:30.675Z,94.59
2018-12-31T05:11:30.663Z,95.17
2018-12-31T05:12:30.651Z,94.70
2018-12-31T05:13:30.680Z,94.90
2018-12-31T05:14:30.629Z,94.70
2018-12-31T05:15:30.620Z,94.70
2018-12-31T05:16:30.611Z,94.90
2018-12-31T05:17:30.602Z,94.85
2018-12-31T05:18:30.584Z,94.90
2018-12-31T05:19:30.599Z,94.24
2018-12-31T05:20:30.564Z,94.18
2018-12-31T05:21:30.552Z,94.24
2018-12-31T05:22:30.540Z,94.14
2018-12-31T05:23:30.533Z,93.83
2018-12-31T05:24:30.545Z,94.45
2018-12-31T05:25:30.508Z,94.24
2018-12-31T05:26:30.497Z,93.73
2018-12-31T05:27:30.486Z,94.14
2018-12-31T05:28:30.474Z,94.45
2018-12-31T05:29:30.486Z,94.34
2018-12-31T05:30:39.818Z,94.14
2018-12-31T05:31:30.517Z,93.93
2018-12-31T05:32:30.430Z,94.34
2018-12-31T05:33:30.421Z,94.14
2018-12-31T05:34:30.433Z,94.45
2018-12-31T05:35:30.397Z,94.55
2018-12-31T05:36:30.396Z,95.10
2018-12-31T05:37:30.376Z,94.85
2018-12-31T05:38:30.372Z,94.76
2018-12-31T05:39:30.377Z,94.65
2018-12-31T05:40:30.343Z,94.45
2018-12-31T05:41:30.334Z,94.65
2018-12-31T05:42:30.320Z,94.55
2018-12-31T05:43:30.316Z,94.80
2018-12-31T05:44:30.327Z,94.65
2018-12-31T05:45:30.288Z,94.80
2018-12-31T05:46:30.285Z,95.01
2018-12-31T05:47:30.276Z,94.80
2018-12-31T05:48:30.255Z,94.80
2018-12-31T05:49:30.276Z,94.45
2018-12-31T05:50:30.235Z,94.96
2018-12-31T05:51:30.225Z,94.96
2018-12-31T05:52:30.221Z,95.06
2018-12-31T05:53:30.202Z,94.85
2018-12-31T05:54:30.212Z,94.55
2018-12-31T05:55:30.177Z,94.85
2018-12-31T05:56:30.172Z,94.85
2018-12-31T05:57:30.157Z,94.85
2018-12-31T05:58:30.144Z,94.96
2018-12-31T05:59:30.161Z,94.14
2018-12-31T06:00:30.122Z,94.14
2018-12-31T06:01:30.114Z,94.45
2018-12-31T06:02:30.100Z,94.96
2018-12-31T06:03:30.091Z,94.96
2018-12-31T06:04:30.211Z,94.24
2018-12-31T06:05:30.068Z,94.39
2018-12-31T06:06:30.058Z,94.34
2018-12-31T06:07:30.048Z,94.96
2018-12-31T06:08:30.038Z,94.45
2018-12-31T06:09:30.034Z,94.96
2018-12-31T06:10:30.054Z,94.90
2018-12-31T06:11:30.000Z,94.85
2018-12-31T06:12:29.991Z,94.76
2018-12-31T06:13:29.980Z,94.65
2018-12-31T06:14:29.968Z,94.45
2018-12-31T06:15:29.981Z,94.70
2018-12-31T06:16:29.946Z,95.17
2018-12-31T06:17:29.938Z,94.85
2018-12-31T06:18:29.927Z,94.65
2018-12-31T06:19:29.914Z,94.70
2018-12-31T06:20:29.927Z,94.65
2018-12-31T06:21:29.891Z,94.55
2018-12-31T06:22:29.887Z,94.85
2018-12-31T06:23:29.870Z,94.65
2018-12-31T06:24:29.867Z,94.55
2018-12-31T06:25:29.889Z,94.76
2018-12-31T06:26:29.847Z,94.76
2018-12-31T06:27:29.829Z,94.65
2018-12-31T06:28:29.815Z,94.55
2018-12-31T06:29:29.804Z,94.55
2018-12-31T06:30:29.828Z,94.55
2018-12-31T06:31:29.782Z,94.55
2018-12-31T06:32:29.770Z,94.45
2018-12-31T06:33:29.761Z,94.65
2018-12-31T06:35:25.056Z,94.45
2018-12-31T06:36:25.069Z,94.45
2018-12-31T06:37:25.031Z,94.45
2018-12-31T06:38:25.024Z,94.45
2018-12-31T06:39:25.006Z,94.45
2018-12-31T06:40:24.997Z,94.85
2018-12-31T06:41:25.013Z,94.85
2018-12-31T06:42:24.983Z,94.45
2018-12-31T06:43:24.965Z,94.65
2018-12-31T06:44:24.965Z,94.85
2018-12-31T06:45:24.940Z,94.85
2018-12-31T06:46:24.955Z,94.65
2018-12-31T06:47:24.928Z,94.65
2018-12-31T06:48:24.908Z,95.17
2018-12-31T06:49:24.896Z,94.55
2018-12-31T06:50:24.883Z,94.85
2018-12-31T06:51:24.973Z,94.55
2018-12-31T06:52:24.864Z,95.17
2018-12-31T06:53:24.852Z,94.65
2018-12-31T06:54:24.845Z,94.85
2018-12-31T06:55:24.830Z,94.55
2018-12-31T06:56:24.853Z,94.45
2018-12-31T06:57:24.807Z,94.96
2018-12-31T06:58:25.498Z,94.45
2018-12-31T06:59:24.794Z,94.45
2018-12-31T07:00:24.774Z,94.45
2018-12-31T07:01:24.764Z,94.24
2018-12-31T07:02:24.773Z,94.24
2018-12-31T07:03:24.741Z,94.14
2018-12-31T07:04:24.739Z,94.34
2018-12-31T07:05:24.721Z,94.51
2018-12-31T07:06:24.714Z,94.24
2018-12-31T07:07:24.719Z,93.79
2018-12-31T07:08:24.687Z,94.45
2018-12-31T07:09:24.673Z,94.40
2018-12-31T07:10:24.661Z,94.20
2018-12-31T07:11:24.659Z,94.10
2018-12-31T07:12:24.667Z,94.40
2018-12-31T07:13:24.629Z,93.93
2018-12-31T07:14:24.616Z,94.20
2018-12-31T07:15:24.608Z,93.79
2018-12-31T07:16:24.598Z,94.45
2018-12-31T07:17:24.605Z,94.34
2018-12-31T07:18:24.573Z,94.34
2018-12-31T07:19:24.564Z,94.30
2018-12-31T07:20:24.566Z,94.92
2018-12-31T07:21:24.544Z,94.85
2018-12-31T07:22:24.551Z,94.76
2018-12-31T07:23:24.520Z,94.55
2018-12-31T07:24:24.506Z,94.81
2018-12-31T07:25:24.498Z,94.96
2018-12-31T07:26:24.483Z,95.06
2018-12-31T07:27:24.769Z,94.96
2018-12-31T07:28:24.464Z,95.17
2018-12-31T07:29:24.457Z,94.92
2018-12-31T07:30:24.440Z,94.65
2018-12-31T07:31:24.429Z,94.65
2018-12-31T07:32:24.429Z,94.65
2018-12-31T07:33:24.428Z,94.45
2018-12-31T07:34:24.397Z,94.45
2018-12-31T07:35:24.385Z,94.76
2018-12-31T07:36:24.381Z,94.55
2018-12-31T07:37:24.364Z,94.61
2018-12-31T07:38:24.372Z,94.65
2018-12-31T07:39:24.339Z,94.55
2018-12-31T07:40:24.327Z,94.55
2018-12-31T07:41:24.317Z,94.51
2018-12-31T07:42:24.305Z,94.96
2018-12-31T07:43:24.318Z,94.81
2018-12-31T07:44:24.285Z,94.96
2018-12-31T07:45:24.272Z,94.96
2018-12-31T07:46:24.262Z,94.92
2018-12-31T07:47:24.251Z,94.55
2018-12-31T07:48:24.260Z,94.51
2018-12-31T07:49:24.230Z,94.81
2018-12-31T07:50:24.217Z,94.71
2018-12-31T07:51:24.208Z,94.71
2018-12-31T07:52:24.193Z,94.76
2018-12-31T07:53:24.205Z,94.65
2018-12-31T07:54:24.176Z,94.45
2018-12-31T07:55:24.164Z,94.61
2018-12-31T07:56:24.148Z,94.51
2018-12-31T07:57:24.145Z,94.61
2018-12-31T07:58:24.150Z,94.65
2018-12-31T07:59:24.115Z,94.55
2018-12-31T08:00:24.106Z,94.65
2018-12-31T08:01:24.094Z,94.65
2018-12-31T08:02:24.117Z,94.51
2018-12-31T08:03:24.095Z,94.85
2018-12-31T08:04:24.061Z,94.76
2018-12-31T08:05:24.048Z,94.61
2018-12-31T08:06:24.042Z,94.61
2018-12-31T08:07:24.026Z,94.40
2018-12-31T08:08:24.043Z,94.81
2018-12-31T08:09:24.005Z,94.81
2018-12-31T08:10:23.994Z,95.12
2018-12-31T08:11:23.982Z,94.92
2018-12-31T08:12:32.386Z,94.92
2018-12-31T08:13:23.986Z,94.71
2018-12-31T08:14:24.217Z,94.92
2018-12-31T08:15:32.799Z,95.02
2018-12-31T08:16:23.929Z,94.61
2018-12-31T08:17:23.919Z,94.51
2018-12-31T08:18:23.942Z,94.40
2018-12-31T08:19:23.899Z,94.40
2018-12-31T08:20:23.884Z,94.40
2018-12-31T08:21:23.873Z,94.71
2018-12-31T08:22:23.863Z,94.51
2018-12-31T08:23:32.175Z,94.40
2018-12-31T08:24:23.860Z,94.51
2018-12-31T08:25:23.829Z,94.51
2018-12-31T08:26:23.819Z,94.71
2018-12-31T08:27:23.808Z,94.61
2018-12-31T08:28:23.794Z,95.53
2018-12-31T08:29:23.813Z,95.53
2018-12-31T08:30:23.772Z,95.53
2018-12-31T08:31:23.763Z,94.40
2018-12-31T08:32:32.037Z,94.51
2018-12-31T08:33:23.738Z,94.56
2018-12-31T08:34:23.750Z,94.81
2018-12-31T08:35:23.722Z,94.61
2018-12-31T08:36:23.713Z,94.67
2018-12-31T08:37:23.697Z,94.61
2018-12-31T08:38:32.048Z,94.61
2018-12-31T08:39:23.694Z,94.36
2018-12-31T08:40:23.662Z,94.67
2018-12-31T08:41:23.652Z,94.61
2018-12-31T08:42:23.637Z,94.56
2018-12-31T08:43:23.628Z,94.87
2018-12-31T08:44:23.638Z,94.56
2018-12-31T08:45:23.604Z,94.98
2018-12-31T08:46:23.595Z,94.87
2018-12-31T08:47:23.584Z,94.77
2018-12-31T08:48:23.574Z,94.26
2018-12-31T08:49:32.837Z,94.77
2018-12-31T08:50:23.551Z,94.46
2018-12-31T08:51:31.925Z,94.15
2018-12-31T08:52:23.526Z,94.05
2018-12-31T08:53:23.518Z,94.15
2018-12-31T08:54:23.542Z,94.36
2018-12-31T08:55:23.493Z,94.98
2018-12-31T08:56:23.482Z,94.77
2018-12-31T08:57:23.471Z,94.56
2018-12-31T08:58:23.463Z,94.87
2018-12-31T08:59:23.450Z,94.98
2018-12-31T09:00:23.550Z,95.07
2018-12-31T09:01:23.426Z,94.77
2018-12-31T09:02:23.415Z,94.36
2018-12-31T09:03:23.425Z,94.77
2018-12-31T09:04:23.395Z,94.67
2018-12-31T09:05:23.405Z,94.67
2018-12-31T09:06:23.387Z,94.56
2018-12-31T09:07:23.360Z,94.36
2018-12-31T09:08:23.372Z,94.56
2018-12-31T09:09:23.337Z,94.77
2018-12-31T09:10:23.351Z,94.56
2018-12-31T09:11:31.667Z,94.56
2018-12-31T09:12:23.304Z,94.77
2018-12-31T09:13:23.292Z,94.15
2018-12-31T09:14:23.284Z,94.15
2018-12-31T09:15:23.295Z,94.26
2018-12-31T09:16:31.631Z,94.36
2018-12-31T09:17:23.250Z,94.21
2018-12-31T09:18:23.236Z,94.11
2018-12-31T09:19:23.226Z,94.21
2018-12-31T09:20:23.324Z,94.01
2018-12-31T09:21:23.276Z,94.21
2018-12-31T09:22:23.208Z,94.32
2018-12-31T09:23:23.181Z,94.11
2018-12-31T09:24:23.170Z,94.15
2018-12-31T09:25:23.185Z,94.26
2018-12-31T09:26:23.149Z,94.36
2018-12-31T09:27:23.139Z,94.11
2018-12-31T09:28:23.125Z,94.11
2018-12-31T09:29:23.114Z,94.11
2018-12-31T09:30:23.125Z,94.21
2018-12-31T09:31:23.095Z,94.21
2018-12-31T09:32:23.079Z,94.11
2018-12-31T09:33:23.071Z,94.11
2018-12-31T09:34:23.067Z,94.11
2018-12-31T09:35:32.471Z,94.21
2018-12-31T09:36:23.044Z,94.15
2018-12-31T09:37:23.057Z,94.21
2018-12-31T09:38:31.258Z,93.80
2018-12-31T09:39:23.028Z,94.21
2018-12-31T09:40:23.009Z,94.11
2018-12-31T09:41:23.022Z,94.01
2018-12-31T09:42:22.976Z,94.01
2018-12-31T09:43:22.966Z,93.80
2018-12-31T09:44:22.956Z,94.21
2018-12-31T09:45:22.944Z,94.21
2018-12-31T09:46:22.956Z,94.01
2018-12-31T09:47:22.914Z,94.32
2018-12-31T09:48:22.902Z,94.15
2018-12-31T09:49:22.892Z,94.11
2018-12-31T09:50:31.697Z,94.11
2018-12-31T09:51:22.916Z,93.80
2018-12-31T09:52:22.858Z,94.01
2018-12-31T09:53:22.852Z,93.80
2018-12-31T09:54:22.840Z,94.11
2018-12-31T09:55:22.834Z,93.80
2018-12-31T09:56:22.837Z,93.45
2018-12-31T09:57:22.805Z,93.60
2018-12-31T09:58:22.799Z,93.70
2018-12-31T09:59:22.781Z,93.96
2018-12-31T10:00:22.768Z,93.55
2018-12-31T10:01:22.789Z,93.86
2018-12-31T10:02:22.746Z,94.01
2018-12-31T10:03:22.918Z,94.01
2018-12-31T10:04:22.724Z,94.32
2018-12-31T10:05:31.182Z,93.35
2018-12-31T10:06:22.750Z,93.35
2018-12-31T10:07:22.716Z,93.66
2018-12-31T10:08:22.757Z,93.70
2018-12-31T10:09:22.668Z,93.45
2018-12-31T10:10:22.659Z,93.39
2018-12-31T10:11:22.647Z,93.45
2018-12-31T10:12:22.658Z,93.66
2018-12-31T10:13:22.625Z,93.55
2018-12-31T10:14:22.615Z,93.66
2018-12-31T10:15:22.601Z,93.45
2018-12-31T10:16:22.680Z,93.76
2018-12-31T10:17:22.611Z,93.04
2018-12-31T10:18:22.569Z,93.45
2018-12-31T10:19:22.556Z,93.04
2018-12-31T10:20:22.546Z,93.86
2018-12-31T10:21:22.539Z,93.96
2018-12-31T10:22:22.547Z,93.25
2018-12-31T10:23:22.626Z,93.96
2018-12-31T10:24:22.543Z,93.35
2018-12-31T10:25:22.494Z,93.55
2018-12-31T10:26:22.480Z,93.49
2018-12-31T10:27:22.492Z,93.76
2018-12-31T10:28:22.461Z,93.66
2018-12-31T10:29:22.448Z,93.80
2018-12-31T10:30:22.437Z,93.66
2018-12-31T10:31:22.423Z,93.76
2018-12-31T10:32:22.439Z,93.96
2018-12-31T10:33:22.405Z,93.70
2018-12-31T10:34:22.393Z,94.01
2018-12-31T10:35:22.382Z,94.17
2018-12-31T10:36:22.373Z,94.07
2018-12-31T10:37:22.386Z,94.07
2018-12-31T10:38:22.370Z,93.76
2018-12-31T10:39:22.406Z,94.07
2018-12-31T10:40:22.342Z,94.27
2018-12-31T10:41:22.628Z,94.58
2018-12-31T10:42:22.356Z,94.27
2018-12-31T10:44:46.752Z,93.96
2018-12-31T10:45:46.737Z,94.07
2018-12-31T10:46:46.916Z,94.17
2018-12-31T10:47:46.736Z,93.76
2018-12-31T10:48:46.709Z,94.07
2018-12-31T10:49:46.696Z,93.86
2018-12-31T10:50:46.685Z,93.66
2018-12-31T10:51:46.674Z,93.66
2018-12-31T10:52:46.685Z,94.17
2018-12-31T10:53:46.650Z,93.76
2018-12-31T10:54:55.908Z,94.07
2018-12-31T10:55:46.626Z,94.07
2018-12-31T10:56:46.632Z,94.17
2018-12-31T10:57:46.638Z,94.07
2018-12-31T10:58:46.600Z,94.07
2018-12-31T10:59:46.580Z,93.96
2018-12-31T11:00:46.569Z,93.76
2018-12-31T11:01:46.617Z,94.07
2018-12-31T11:02:46.596Z,93.96
2018-12-31T11:03:59.647Z,94.17
2018-12-31T11:04:46.525Z,94.07
2018-12-31T11:05:46.519Z,94.07
2018-12-31T11:06:46.510Z,94.17
2018-12-31T11:07:46.493Z,93.66
2018-12-31T11:08:46.508Z,93.76
2018-12-31T11:09:46.469Z,93.76
2018-12-31T11:10:46.461Z,93.51
2018-12-31T11:11:46.493Z,93.76
2018-12-31T11:12:56.002Z,93.55
2018-12-31T11:13:46.450Z,93.62
2018-12-31T11:14:46.428Z,93.10
2018-12-31T11:15:46.410Z,93.51
2018-12-31T11:16:55.224Z,93.62
2018-12-31T11:17:46.391Z,93.20
2018-12-31T11:18:46.422Z,93.00
2018-12-31T11:19:46.357Z,93.51
2018-12-31T11:20:46.349Z,93.55
2018-12-31T11:21:46.336Z,93.45
2018-12-31T11:22:46.324Z,93.62
2018-12-31T11:23:46.335Z,93.10
2018-12-31T11:24:46.301Z,93.66
2018-12-31T11:25:46.291Z,93.15
2018-12-31T11:26:46.280Z,93.55
2018-12-31T11:27:46.267Z,93.66
2018-12-31T11:28:46.312Z,93.10
2018-12-31T11:29:46.246Z,93.25
2018-12-31T11:30:46.234Z,93.66
2018-12-31T11:31:46.226Z,93.45
2018-12-31T11:32:56.331Z,93.25
2018-12-31T11:33:54.721Z,93.96
2018-12-31T11:34:46.189Z,93.96
2018-12-31T11:35:46.182Z,93.86
2018-12-31T11:36:46.169Z,93.96
2018-12-31T11:37:46.157Z,93.86
2018-12-31T11:38:46.149Z,93.45
2018-12-31T11:39:46.158Z,93.66
2018-12-31T11:40:46.122Z,93.66
2018-12-31T11:41:46.114Z,93.55
2018-12-31T11:42:46.302Z,93.51
2018-12-31T11:43:55.587Z,93.55
2018-12-31T11:44:46.102Z,93.45
2018-12-31T11:45:46.070Z,93.55
2018-12-31T11:46:46.058Z,93.45
2018-12-31T11:47:46.048Z,93.76
2018-12-31T11:48:46.036Z,93.76
2018-12-31T11:49:55.331Z,93.55
2018-12-31T11:50:46.011Z,93.66
2018-12-31T11:51:46.002Z,92.83
2018-12-31T11:52:46.012Z,92.59
2018-12-31T11:53:46.020Z,92.83
2018-12-31T11:54:46.038Z,92.83
2018-12-31T11:55:45.957Z,92.53
2018-12-31T11:56:45.944Z,92.53
2018-12-31T11:57:45.935Z,92.83
2018-12-31T11:58:45.922Z,92.74
2018-12-31T11:59:45.912Z,92.53
2018-12-31T12:00:54.230Z,93.55
2018-12-31T12:01:45.919Z,92.94
2018-12-31T12:02:45.884Z,93.41
2018-12-31T12:03:54.458Z,93.66
2018-12-31T12:04:45.973Z,93.45
2018-12-31T12:05:45.869Z,93.00
2018-12-31T12:06:45.837Z,92.74
2018-12-31T12:07:45.828Z,93.04
2018-12-31T12:08:45.819Z,92.74
2018-12-31T12:09:46.700Z,93.55
2018-12-31T12:10:45.812Z,93.25
2018-12-31T12:11:45.779Z,92.63
2018-12-31T12:12:45.766Z,92.83
2018-12-31T12:13:45.757Z,93.45
2018-12-31T12:14:45.752Z,93.66
2018-12-31T12:16:56.664Z,93.55
2018-12-31T12:18:06.091Z,92.94
2018-12-31T12:18:56.622Z,93.45
2018-12-31T12:19:56.603Z,93.04
2018-12-31T12:20:56.621Z,94.07
2018-12-31T12:21:56.582Z,93.86
2018-12-31T12:22:56.570Z,93.86
2018-12-31T12:23:56.559Z,93.25
2018-12-31T12:24:56.576Z,93.10
2018-12-31T12:25:56.568Z,93.55
2018-12-31T12:26:56.526Z,93.55
2018-12-31T12:27:56.518Z,93.45
2018-12-31T12:28:56.505Z,93.15
2018-12-31T12:29:56.489Z,93.55
2018-12-31T12:30:56.478Z,93.25
2018-12-31T12:32:06.101Z,93.45
2018-12-31T12:32:56.458Z,93.76
2018-12-31T12:33:56.452Z,92.49
2018-12-31T12:34:56.434Z,92.83
2018-12-31T12:36:04.832Z,92.74
2018-12-31T12:36:56.436Z,93.35
2018-12-31T12:37:56.403Z,93.45
2018-12-31T12:38:56.389Z,93.15
2018-12-31T12:39:56.382Z,93.55
2018-12-31T12:40:56.367Z,93.76
2018-12-31T12:41:56.379Z,93.15
2018-12-31T12:42:56.346Z,93.76
2018-12-31T12:43:56.333Z,93.15
2018-12-31T12:44:56.323Z,94.17
2018-12-31T12:45:56.311Z,94.07
2018-12-31T12:46:56.325Z,93.45
2018-12-31T12:47:56.345Z,93.20
2018-12-31T12:48:56.284Z,93.45
2018-12-31T12:49:56.269Z,93.66
2018-12-31T12:50:56.256Z,93.76
2018-12-31T12:51:56.269Z,93.55
2018-12-31T12:52:56.233Z,93.62
2018-12-31T12:53:56.224Z,92.63
2018-12-31T12:54:56.210Z,92.38
2018-12-31T12:55:56.205Z,92.63